sensor_id;sensor_type;location;lat;lon;timestamp;pressure;altitude;pressure_sealevel;temperature;humidity
74045;BME280;62389;51.412;5.436;2022-10-31T00:01:15;101973.78;;;13.43;83.98
74045;BME280;62389;51.412;5.436;2022-10-31T00:03:41;101977.41;;;13.40;83.85
74045;BME280;62389;51.412;5.436;2022-10-31T00:06:06;101980.97;;;13.38;84.51
74045;BME280;62389;51.412;5.436;2022-10-31T00:08:32;101981.22;;;13.32;84.13
74045;BME280;62389;51.412;5.436;2022-10-31T00:10:58;101983.00;;;13.31;84.43
74045;BME280;62389;51.412;5.436;2022-10-31T00:13:24;101982.06;;;13.32;84.62
74045;BME280;62389;51.412;5.436;2022-10-31T00:15:49;101974.19;;;13.32;84.00
74045;BME280;62389;51.412;5.436;2022-10-31T00:18:15;101979.44;;;13.32;83.77
74045;BME280;62389;51.412;5.436;2022-10-31T00:20:40;101978.69;;;13.29;84.18
74045;BME280;62389;51.412;5.436;2022-10-31T00:23:06;101984.94;;;13.26;83.73
74045;BME280;62389;51.412;5.436;2022-10-31T00:25:37;101983.19;;;13.25;83.66
74045;BME280;62389;51.412;5.436;2022-10-31T00:28:04;101988.56;;;13.22;83.30
74045;BME280;62389;51.412;5.436;2022-10-31T00:30:30;101985.22;;;13.17;82.84
74045;BME280;62389;51.412;5.436;2022-10-31T00:32:55;101975.72;;;13.13;83.62
74045;BME280;62389;51.412;5.436;2022-10-31T00:35:20;101975.81;;;13.11;83.26
74045;BME280;62389;51.412;5.436;2022-10-31T00:37:46;101969.72;;;13.09;83.06
74045;BME280;62389;51.412;5.436;2022-10-31T00:40:11;101969.84;;;13.06;83.81
74045;BME280;62389;51.412;5.436;2022-10-31T00:42:39;101962.94;;;13.04;83.27
74045;BME280;62389;51.412;5.436;2022-10-31T00:45:04;101961.22;;;13.03;83.92
74045;BME280;62389;51.412;5.436;2022-10-31T00:47:30;101961.38;;;12.98;83.64
74045;BME280;62389;51.412;5.436;2022-10-31T00:49:55;101965.88;;;12.94;83.95
74045;BME280;62389;51.412;5.436;2022-10-31T00:52:20;101966.94;;;12.90;83.96
74045;BME280;62389;51.412;5.436;2022-10-31T00:54:46;101966.16;;;12.87;83.63
74045;BME280;62389;51.412;5.436;2022-10-31T00:57:11;101961.88;;;12.84;83.86
74045;BME280;62389;51.412;5.436;2022-10-31T00:59:36;101962.00;;;12.81;83.63
74045;BME280;62389;51.412;5.436;2022-10-31T01:02:02;101977.91;;;12.77;84.28
74045;BME280;62389;51.412;5.436;2022-10-31T01:04:27;101976.53;;;12.65;84.63
74045;BME280;62389;51.412;5.436;2022-10-31T01:06:52;101975.91;;;12.58;84.98
74045;BME280;62389;51.412;5.436;2022-10-31T01:09:18;101965.47;;;12.57;84.67
74045;BME280;62389;51.412;5.436;2022-10-31T01:11:43;101953.97;;;12.61;84.79
74045;BME280;62389;51.412;5.436;2022-10-31T01:14:09;101955.53;;;12.65;85.45
74045;BME280;62389;51.412;5.436;2022-10-31T01:16:34;101953.03;;;12.62;85.32
74045;BME280;62389;51.412;5.436;2022-10-31T01:19:00;101945.38;;;12.56;85.36
74045;BME280;62389;51.412;5.436;2022-10-31T01:21:27;101946.38;;;12.52;85.56
74045;BME280;62389;51.412;5.436;2022-10-31T01:23:54;101947.47;;;12.46;85.90
74045;BME280;62389;51.412;5.436;2022-10-31T01:26:22;101956.41;;;12.40;85.54
74045;BME280;62389;51.412;5.436;2022-10-31T01:28:49;101963.44;;;12.38;85.53
74045;BME280;62389;51.412;5.436;2022-10-31T01:31:16;101949.53;;;12.36;85.61
74045;BME280;62389;51.412;5.436;2022-10-31T01:33:42;101965.31;;;12.35;85.55
74045;BME280;62389;51.412;5.436;2022-10-31T01:36:31;101960.31;;;12.27;84.67
74045;BME280;62389;51.412;5.436;2022-10-31T01:38:59;101969.19;;;12.23;85.31
74045;BME280;62389;51.412;5.436;2022-10-31T01:41:27;101964.00;;;12.22;85.20
74045;BME280;62389;51.412;5.436;2022-10-31T01:46:45;101966.00;;;12.15;85.28
74045;BME280;62389;51.412;5.436;2022-10-31T01:49:17;101962.59;;;12.11;85.67
74045;BME280;62389;51.412;5.436;2022-10-31T01:51:49;101956.44;;;12.12;85.79
74045;BME280;62389;51.412;5.436;2022-10-31T01:54:18;101956.38;;;12.14;85.69
74045;BME280;62389;51.412;5.436;2022-10-31T01:56:49;101966.78;;;12.17;85.22
74045;BME280;62389;51.412;5.436;2022-10-31T01:59:17;101960.63;;;12.18;84.57
74045;BME280;62389;51.412;5.436;2022-10-31T02:01:44;101954.53;;;12.17;84.71
74045;BME280;62389;51.412;5.436;2022-10-31T02:04:11;101951.91;;;12.17;84.72
74045;BME280;62389;51.412;5.436;2022-10-31T02:07:13;101953.66;;;12.17;83.97
74045;BME280;62389;51.412;5.436;2022-10-31T02:09:40;101945.09;;;12.12;84.74
74045;BME280;62389;51.412;5.436;2022-10-31T02:12:06;101947.81;;;12.09;84.92
74045;BME280;62389;51.412;5.436;2022-10-31T02:14:35;101944.47;;;12.04;85.36
74045;BME280;62389;51.412;5.436;2022-10-31T02:17:00;101943.03;;;11.95;85.21
74045;BME280;62389;51.412;5.436;2022-10-31T02:19:54;101941.41;;;11.89;84.99
74045;BME280;62389;51.412;5.436;2022-10-31T02:28:25;101951.16;;;11.56;86.26
74045;BME280;62389;51.412;5.436;2022-10-31T02:31:35;101954.69;;;11.55;85.54
74045;BME280;62389;51.412;5.436;2022-10-31T02:34:20;101950.41;;;11.53;85.46
74045;BME280;62389;51.412;5.436;2022-10-31T02:37:02;101953.94;;;11.52;85.71
74045;BME280;62389;51.412;5.436;2022-10-31T02:39:40;101954.13;;;11.44;85.92
74045;BME280;62389;51.412;5.436;2022-10-31T02:42:14;101946.47;;;11.38;86.30
74045;BME280;62389;51.412;5.436;2022-10-31T02:44:49;101953.41;;;11.39;86.69
74045;BME280;62389;51.412;5.436;2022-10-31T02:47:17;101947.25;;;11.41;86.43
74045;BME280;62389;51.412;5.436;2022-10-31T02:50:06;101941.03;;;11.44;86.65
74045;BME280;62389;51.412;5.436;2022-10-31T02:52:31;101941.16;;;11.41;86.41
74045;BME280;62389;51.412;5.436;2022-10-31T02:54:57;101935.13;;;11.37;86.71
74045;BME280;62389;51.412;5.436;2022-10-31T02:57:29;101931.59;;;11.38;86.62
74045;BME280;62389;51.412;5.436;2022-10-31T03:00:00;101931.53;;;11.41;86.98
74045;BME280;62389;51.412;5.436;2022-10-31T03:02:42;101933.22;;;11.43;87.12
74045;BME280;62389;51.412;5.436;2022-10-31T03:05:18;101938.47;;;11.43;86.82
74045;BME280;62389;51.412;5.436;2022-10-31T03:15:45;101939.78;;;11.57;86.16
74045;BME280;62389;51.412;5.436;2022-10-31T03:18:26;101931.84;;;11.59;85.55
74045;BME280;62389;51.412;5.436;2022-10-31T03:20:58;101936.25;;;11.58;85.87
74045;BME280;62389;51.412;5.436;2022-10-31T03:23:27;101933.75;;;11.54;85.71
74045;BME280;62389;51.412;5.436;2022-10-31T03:25:54;101921.63;;;11.51;85.94
74045;BME280;62389;51.412;5.436;2022-10-31T03:28:26;101928.66;;;11.49;85.71
74045;BME280;62389;51.412;5.436;2022-10-31T03:30:54;101926.09;;;11.48;85.50
74045;BME280;62389;51.412;5.436;2022-10-31T03:33:25;101929.69;;;11.44;85.21
74045;BME280;62389;51.412;5.436;2022-10-31T03:35:54;101926.28;;;11.41;84.98
74045;BME280;62389;51.412;5.436;2022-10-31T03:38:21;101925.44;;;11.39;85.17
74045;BME280;62389;51.412;5.436;2022-10-31T03:40:47;101926.47;;;11.35;84.88
74045;BME280;62389;51.412;5.436;2022-10-31T03:43:17;101929.16;;;11.32;85.09
74045;BME280;62389;51.412;5.436;2022-10-31T03:45:45;101929.22;;;11.31;85.07
74045;BME280;62389;51.412;5.436;2022-10-31T03:48:13;101927.50;;;11.30;85.28
74045;BME280;62389;51.412;5.436;2022-10-31T03:51:04;101927.50;;;11.30;84.58
74045;BME280;62389;51.412;5.436;2022-10-31T03:53:36;101925.88;;;11.26;85.20
74045;BME280;62389;51.412;5.436;2022-10-31T03:56:12;101930.28;;;11.24;85.28
74045;BME280;62389;51.412;5.436;2022-10-31T03:58:57;101925.09;;;11.22;85.41
74045;BME280;62389;51.412;5.436;2022-10-31T04:01:24;101926.91;;;11.20;85.73
74045;BME280;62389;51.412;5.436;2022-10-31T04:03:51;101928.72;;;11.18;85.43
74045;BME280;62389;51.412;5.436;2022-10-31T04:06:18;101927.00;;;11.17;85.30
74045;BME280;62389;51.412;5.436;2022-10-31T04:08:50;101927.97;;;11.14;85.56
74045;BME280;62389;51.412;5.436;2022-10-31T04:11:18;101928.94;;;11.10;85.50
74045;BME280;62389;51.412;5.436;2022-10-31T04:13:45;101933.31;;;11.10;85.38
74045;BME280;62389;51.412;5.436;2022-10-31T04:16:13;101931.56;;;11.10;85.67
74045;BME280;62389;51.412;5.436;2022-10-31T04:18:40;101927.25;;;11.08;85.93
74045;BME280;62389;51.412;5.436;2022-10-31T04:21:07;101944.97;;;11.00;85.81
74045;BME280;62389;51.412;5.436;2022-10-31T04:23:34;101939.84;;;10.95;86.37
74045;BME280;62389;51.412;5.436;2022-10-31T04:26:00;101944.13;;;10.98;85.05
74045;BME280;62389;51.412;5.436;2022-10-31T04:28:25;101948.56;;;10.96;85.93
74045;BME280;62389;51.412;5.436;2022-10-31T04:30:51;101939.84;;;10.95;85.87
74045;BME280;62389;51.412;5.436;2022-10-31T04:33:17;101941.59;;;10.95;86.08
74045;BME280;62389;51.412;5.436;2022-10-31T04:35:43;101938.09;;;10.96;85.76
74045;BME280;62389;51.412;5.436;2022-10-31T04:38:08;101938.09;;;10.96;85.56
74045;BME280;62389;51.412;5.436;2022-10-31T04:40:34;101938.09;;;10.96;85.77
74045;BME280;62389;51.412;5.436;2022-10-31T04:42:59;101942.47;;;10.95;85.76
74045;BME280;62389;51.412;5.436;2022-10-31T04:45:24;101936.41;;;10.93;85.61
74045;BME280;62389;51.412;5.436;2022-10-31T04:47:50;101939.88;;;10.94;85.83
74045;BME280;62389;51.412;5.436;2022-10-31T04:50:15;101940.72;;;10.94;86.04
74045;BME280;62389;51.412;5.436;2022-10-31T04:52:43;101936.38;;;10.95;85.93
74045;BME280;62389;51.412;5.436;2022-10-31T04:55:09;101938.94;;;10.96;85.89
74045;BME280;62389;51.412;5.436;2022-10-31T04:57:42;101926.66;;;10.98;86.20
74045;BME280;62389;51.412;5.436;2022-10-31T05:00:09;101920.56;;;10.98;86.11
74045;BME280;62389;51.412;5.436;2022-10-31T05:02:42;101932.78;;;10.97;85.79
74045;BME280;62389;51.412;5.436;2022-10-31T05:05:08;101939.88;;;10.94;86.05
74045;BME280;62389;51.412;5.436;2022-10-31T05:07:38;101935.59;;;10.91;85.84
74045;BME280;62389;51.412;5.436;2022-10-31T05:10:04;101921.66;;;10.89;86.09
74045;BME280;62389;51.412;5.436;2022-10-31T05:12:30;101925.25;;;10.86;85.86
74045;BME280;62389;51.412;5.436;2022-10-31T05:14:55;101923.56;;;10.84;85.72
74045;BME280;62389;51.412;5.436;2022-10-31T05:17:21;101924.50;;;10.81;86.11
74045;BME280;62389;51.412;5.436;2022-10-31T05:19:46;101923.72;;;10.79;86.12
74045;BME280;62389;51.412;5.436;2022-10-31T05:22:11;101930.72;;;10.77;85.60
74045;BME280;62389;51.412;5.436;2022-10-31T05:24:37;101923.84;;;10.75;85.90
74045;BME280;62389;51.412;5.436;2022-10-31T05:27:02;101926.53;;;10.72;85.52
74045;BME280;62389;51.412;5.436;2022-10-31T05:29:28;101914.34;;;10.69;85.64
74045;BME280;62389;51.412;5.436;2022-10-31T05:31:58;101911.78;;;10.68;85.90
74045;BME280;62389;51.412;5.436;2022-10-31T05:34:24;101914.47;;;10.66;86.01
74045;BME280;62389;51.412;5.436;2022-10-31T05:36:49;101913.63;;;10.64;86.00
74045;BME280;62389;51.412;5.436;2022-10-31T05:39:14;101908.44;;;10.62;86.07
74045;BME280;62389;51.412;5.436;2022-10-31T05:41:40;101909.34;;;10.61;85.62
74045;BME280;62389;51.412;5.436;2022-10-31T05:44:05;101914.66;;;10.58;85.90
74045;BME280;62389;51.412;5.436;2022-10-31T05:46:30;101911.28;;;10.55;86.33
74045;BME280;62389;51.412;5.436;2022-10-31T05:48:56;101913.06;;;10.53;86.14
74045;BME280;62389;51.412;5.436;2022-10-31T05:51:21;101900.88;;;10.52;85.72
74045;BME280;62389;51.412;5.436;2022-10-31T05:53:46;101902.69;;;10.50;85.75
74045;BME280;62389;51.412;5.436;2022-10-31T05:56:12;101899.22;;;10.49;86.31
74045;BME280;62389;51.412;5.436;2022-10-31T05:58:38;101900.94;;;10.50;86.00
74045;BME280;62389;51.412;5.436;2022-10-31T06:01:03;101892.25;;;10.48;85.67
74045;BME280;62389;51.412;5.436;2022-10-31T06:03:28;101893.25;;;10.44;85.77
74045;BME280;62389;51.412;5.436;2022-10-31T06:05:54;101899.41;;;10.42;86.29
74045;BME280;62389;51.412;5.436;2022-10-31T06:08:19;101895.09;;;10.41;85.78
74045;BME280;62389;51.412;5.436;2022-10-31T06:10:44;101892.47;;;10.41;86.01
74045;BME280;62389;51.412;5.436;2022-10-31T06:13:10;101896.00;;;10.40;86.09
74045;BME280;62389;51.412;5.436;2022-10-31T06:15:35;101890.75;;;10.40;86.12
74045;BME280;62389;51.412;5.436;2022-10-31T06:18:03;101894.25;;;10.38;86.45
74045;BME280;62389;51.412;5.436;2022-10-31T06:20:28;101896.06;;;10.36;86.74
74045;BME280;62389;51.412;5.436;2022-10-31T06:22:54;101885.66;;;10.33;86.45
74045;BME280;62389;51.412;5.436;2022-10-31T06:25:19;101897.03;;;10.32;86.69
74045;BME280;62389;51.412;5.436;2022-10-31T06:27:45;101889.22;;;10.31;86.72
74045;BME280;62389;51.412;5.436;2022-10-31T06:30:10;101897.03;;;10.32;86.71
74045;BME280;62389;51.412;5.436;2022-10-31T06:32:36;101891.84;;;10.31;86.59
74045;BME280;62389;51.412;5.436;2022-10-31T06:35:01;101899.75;;;10.29;86.81
74045;BME280;62389;51.412;5.436;2022-10-31T06:37:26;101906.75;;;10.27;86.77
74045;BME280;62389;51.412;5.436;2022-10-31T06:39:52;101901.53;;;10.27;87.13
74045;BME280;62389;51.412;5.436;2022-10-31T06:42:17;101897.94;;;10.31;87.11
74045;BME280;62389;51.412;5.436;2022-10-31T06:44:42;101897.03;;;10.32;87.03
74045;BME280;62389;51.412;5.436;2022-10-31T06:47:08;101893.50;;;10.35;86.73
74045;BME280;62389;51.412;5.436;2022-10-31T06:49:33;101899.47;;;10.38;86.71
74045;BME280;62389;51.412;5.436;2022-10-31T06:51:59;101887.31;;;10.37;86.12
74045;BME280;62389;51.412;5.436;2022-10-31T06:54:24;101904.72;;;10.38;86.50
74045;BME280;62389;51.412;5.436;2022-10-31T06:56:49;101888.16;;;10.40;86.75
74045;BME280;62389;51.412;5.436;2022-10-31T06:59:15;101885.44;;;10.43;86.85
74045;BME280;62389;51.412;5.436;2022-10-31T07:01:41;101887.06;;;10.47;86.91
74045;BME280;62389;51.412;5.436;2022-10-31T07:04:08;101890.50;;;10.49;86.82
74045;BME280;62389;51.412;5.436;2022-10-31T07:06:34;101885.13;;;10.53;87.15
74045;BME280;62389;51.412;5.436;2022-10-31T07:08:59;101892.06;;;10.56;87.27
74045;BME280;62389;51.412;5.436;2022-10-31T07:11:24;101885.84;;;10.60;87.08
74045;BME280;62389;51.412;5.436;2022-10-31T07:13:50;101889.22;;;10.63;86.96
74045;BME280;62389;51.412;5.436;2022-10-31T07:16:15;101889.16;;;10.67;86.64
74045;BME280;62389;51.412;5.436;2022-10-31T07:18:40;101888.19;;;10.69;86.80
74045;BME280;62389;51.412;5.436;2022-10-31T07:21:06;101881.13;;;10.73;86.93
74045;BME280;62389;51.412;5.436;2022-10-31T07:23:31;101888.94;;;10.74;86.56
74045;BME280;62389;51.412;5.436;2022-10-31T07:25:57;101888.84;;;10.77;87.11
74045;BME280;62389;51.412;5.436;2022-10-31T07:28:24;101900.97;;;10.81;87.27
74045;BME280;62389;51.412;5.436;2022-10-31T07:30:51;101894.75;;;10.85;87.16
74045;BME280;62389;51.412;5.436;2022-10-31T07:33:16;101896.28;;;10.93;87.29
74045;BME280;62389;51.412;5.436;2022-10-31T07:35:41;101899.53;;;11.01;87.06
74045;BME280;62389;51.412;5.436;2022-10-31T07:38:11;101903.69;;;11.08;86.46
74045;BME280;62389;51.412;5.436;2022-10-31T07:40:37;101892.16;;;11.15;86.67
74045;BME280;62389;51.412;5.436;2022-10-31T07:43:02;101894.53;;;11.23;86.84
74045;BME280;62389;51.412;5.436;2022-10-31T07:45:28;101896.09;;;11.28;86.37
74045;BME280;62389;51.412;5.436;2022-10-31T07:47:54;101896.75;;;11.36;86.56
74045;BME280;62389;51.412;5.436;2022-10-31T07:50:21;101902.66;;;11.43;86.69
74045;BME280;62389;51.412;5.436;2022-10-31T07:52:48;101907.69;;;11.49;86.49
74045;BME280;62389;51.412;5.436;2022-10-31T07:55:14;101901.47;;;11.53;86.52
74045;BME280;62389;51.412;5.436;2022-10-31T07:57:40;101910.03;;;11.60;87.21
74045;BME280;62389;51.412;5.436;2022-10-31T08:00:08;101912.31;;;11.69;87.30
74045;BME280;62389;51.412;5.436;2022-10-31T08:02:34;101912.84;;;11.82;87.07
74045;BME280;62389;51.412;5.436;2022-10-31T08:05:00;101915.63;;;12.04;86.50
74045;BME280;62389;51.412;5.436;2022-10-31T08:07:26;101915.50;;;12.33;86.21
74045;BME280;62389;51.412;5.436;2022-10-31T08:09:52;101922.88;;;12.74;85.57
74045;BME280;62389;51.412;5.436;2022-10-31T08:12:18;101913.47;;;13.15;84.34
74045;BME280;62389;51.412;5.436;2022-10-31T08:14:43;101897.47;;;13.46;83.29
74045;BME280;62389;51.412;5.436;2022-10-31T08:17:09;101887.19;;;13.62;82.13
74045;BME280;62389;51.412;5.436;2022-10-31T08:19:35;101888.66;;;13.69;83.20
74045;BME280;62389;51.412;5.436;2022-10-31T08:22:00;101893.81;;;13.72;83.05
74045;BME280;62389;51.412;5.436;2022-10-31T08:24:25;101903.69;;;13.65;83.28
74045;BME280;62389;51.412;5.436;2022-10-31T08:26:51;101897.75;;;13.60;83.91
74045;BME280;62389;51.412;5.436;2022-10-31T08:29:16;101896.91;;;13.60;84.60
74045;BME280;62389;51.412;5.436;2022-10-31T08:31:42;101895.25;;;13.57;84.32
74045;BME280;62389;51.412;5.436;2022-10-31T08:34:07;101887.56;;;13.53;84.36
74045;BME280;62389;51.412;5.436;2022-10-31T08:36:33;101871.03;;;13.49;84.97
74045;BME280;62389;51.412;5.436;2022-10-31T08:38:58;101853.81;;;13.42;85.17
74045;BME280;62389;51.412;5.436;2022-10-31T08:41:24;101847.06;;;13.35;85.49
74045;BME280;62389;51.412;5.436;2022-10-31T08:43:49;101839.56;;;13.26;85.62
74045;BME280;62389;51.412;5.436;2022-10-31T08:46:14;101839.81;;;13.18;86.71
74045;BME280;62389;51.412;5.436;2022-10-31T08:48:40;101856.84;;;13.08;87.68
74045;BME280;62389;51.412;5.436;2022-10-31T08:51:06;101860.84;;;12.94;88.38
74045;BME280;62389;51.412;5.436;2022-10-31T08:53:31;101869.81;;;12.89;88.80
74045;BME280;62389;51.412;5.436;2022-10-31T08:55:57;101851.59;;;12.84;88.84
74045;BME280;62389;51.412;5.436;2022-10-31T08:58:23;101850.75;;;12.84;88.29
74045;BME280;62389;51.412;5.436;2022-10-31T09:00:51;101844.47;;;12.88;88.92
74045;BME280;62389;51.412;5.436;2022-10-31T09:05:44;101863.41;;;13.19;89.79
74045;BME280;62389;51.412;5.436;2022-10-31T09:08:11;101871.41;;;13.40;88.54
74045;BME280;62389;51.412;5.436;2022-10-31T09:10:37;101881.94;;;13.62;88.37
74045;BME280;62389;51.412;5.436;2022-10-31T09:13:11;101872.50;;;13.78;87.57
74045;BME280;62389;51.412;5.436;2022-10-31T09:15:39;101850.84;;;13.93;87.58
74045;BME280;62389;51.412;5.436;2022-10-31T09:18:05;101838.94;;;14.05;86.61
74045;BME280;62389;51.412;5.436;2022-10-31T09:20:32;101828.03;;;14.14;87.32
74045;BME280;62389;51.412;5.436;2022-10-31T09:23:00;101839.41;;;14.15;87.53
74045;BME280;62389;51.412;5.436;2022-10-31T09:25:26;101832.59;;;14.11;87.04
74045;BME280;62389;51.412;5.436;2022-10-31T09:27:58;101821.59;;;14.21;87.33
74045;BME280;62389;51.412;5.436;2022-10-31T09:30:29;101807.97;;;14.32;86.63
74045;BME280;62389;51.412;5.436;2022-10-31T09:33:02;101796.53;;;14.33;86.82
74045;BME280;62389;51.412;5.436;2022-10-31T09:35:28;101778.38;;;14.27;86.65
74045;BME280;62389;51.412;5.436;2022-10-31T09:37:58;101778.56;;;14.22;86.65
74045;BME280;62389;51.412;5.436;2022-10-31T09:40:31;101790.22;;;14.17;86.61
74045;BME280;62389;51.412;5.436;2022-10-31T09:45:44;101808.91;;;14.11;87.47
74045;BME280;62389;51.412;5.436;2022-10-31T09:48:31;101807.84;;;14.15;86.84
74045;BME280;62389;51.412;5.436;2022-10-31T09:51:03;101802.25;;;14.22;87.42
74045;BME280;62389;51.412;5.436;2022-10-31T09:53:57;101801.91;;;14.30;87.22
74045;BME280;62389;51.412;5.436;2022-10-31T09:56:21;101788.44;;;14.38;86.98
74045;BME280;62389;51.412;5.436;2022-10-31T09:58:57;101788.94;;;14.46;86.71
74045;BME280;62389;51.412;5.436;2022-10-31T10:01:47;101783.06;;;14.60;86.80
74045;BME280;62389;51.412;5.436;2022-10-31T10:04:59;101769.41;;;14.89;86.56
74045;BME280;62389;51.412;5.436;2022-10-31T10:09:59;101766.66;;;15.99;84.79
74045;BME280;62389;51.412;5.436;2022-10-31T10:15:28;101761.22;;;16.69;84.50
74045;BME280;62389;51.412;5.436;2022-10-31T10:18:16;101763.38;;;17.09;82.39
74045;BME280;62389;51.412;5.436;2022-10-31T10:26:18;101737.06;;;17.38;79.41
74045;BME280;62389;51.412;5.436;2022-10-31T10:28:52;101735.72;;;17.31;80.33
74045;BME280;62389;51.412;5.436;2022-10-31T10:31:27;101729.00;;;17.25;79.94
74045;BME280;62389;51.412;5.436;2022-10-31T10:34:10;101730.19;;;17.20;80.38
74045;BME280;62389;51.412;5.436;2022-10-31T10:36:48;101738.91;;;17.06;80.26
74045;BME280;62389;51.412;5.436;2022-10-31T10:39:21;101744.09;;;16.92;79.70
74045;BME280;62389;51.412;5.436;2022-10-31T10:41:48;101743.00;;;16.80;81.23
74045;BME280;62389;51.412;5.436;2022-10-31T10:44:33;101732.66;;;16.60;81.10
74045;BME280;62389;51.412;5.436;2022-10-31T10:47:17;101733.34;;;16.47;81.54
74045;BME280;62389;51.412;5.436;2022-10-31T10:50:03;101732.13;;;16.37;81.72
74045;BME280;62389;51.412;5.436;2022-10-31T10:58:02;101723.47;;;16.18;82.15
74045;BME280;62389;51.412;5.436;2022-10-31T11:00:35;101724.44;;;16.17;82.31
74045;BME280;62389;51.412;5.436;2022-10-31T11:03:01;101720.75;;;16.19;82.31
74045;BME280;62389;51.412;5.436;2022-10-31T11:05:42;101711.97;;;16.19;82.37
74045;BME280;62389;51.412;5.436;2022-10-31T11:08:10;101718.03;;;16.21;82.33
74045;BME280;62389;51.412;5.436;2022-10-31T11:10:36;101724.25;;;16.20;82.27
74045;BME280;62389;51.412;5.436;2022-10-31T11:18:22;101684.88;;;16.15;82.22
74045;BME280;62389;51.412;5.436;2022-10-31T11:20:55;101676.72;;;16.20;82.48
74045;BME280;62389;51.412;5.436;2022-10-31T11:23:23;101674.53;;;16.28;82.32
74045;BME280;62389;51.412;5.436;2022-10-31T11:26:14;101663.63;;;16.34;82.21
74045;BME280;62389;51.412;5.436;2022-10-31T11:28:43;101671.75;;;16.47;82.51
74045;BME280;62389;51.412;5.436;2022-10-31T11:31:12;101664.16;;;16.56;81.79
74045;BME280;62389;51.412;5.436;2022-10-31T11:33:48;101659.03;;;16.69;81.70
74045;BME280;62389;51.412;5.436;2022-10-31T11:36:20;101650.19;;;16.86;81.81
74045;BME280;62389;51.412;5.436;2022-10-31T11:38:46;101640.94;;;17.09;81.74
74045;BME280;62389;51.412;5.436;2022-10-31T11:41:15;101633.16;;;17.36;80.96
74045;BME280;62389;51.412;5.436;2022-10-31T11:43:48;101631.69;;;17.60;79.53
74045;BME280;62389;51.412;5.436;2022-10-31T11:46:24;101623.81;;;17.75;77.72
74045;BME280;62389;51.412;5.436;2022-10-31T11:48:53;101616.53;;;17.78;76.71
74045;BME280;62389;51.412;5.436;2022-10-31T11:51:25;101621.44;;;17.84;77.83
74045;BME280;62389;51.412;5.436;2022-10-31T11:53:54;101604.91;;;17.95;77.53
74045;BME280;62389;51.412;5.436;2022-10-31T11:56:20;101603.66;;;18.01;76.93
74045;BME280;62389;51.412;5.436;2022-10-31T11:58:56;101597.25;;;17.91;77.58
74045;BME280;62389;51.412;5.436;2022-10-31T12:01:31;101583.38;;;17.73;77.68
74045;BME280;62389;51.412;5.436;2022-10-31T12:03:59;101588.63;;;17.58;76.57
74045;BME280;62389;51.412;5.436;2022-10-31T12:06:41;101583.31;;;17.44;78.44
74045;BME280;62389;51.412;5.436;2022-10-31T12:09:24;101577.28;;;17.42;79.24
74045;BME280;62389;51.412;5.436;2022-10-31T12:28:13;101539.84;;;18.74;73.89
74045;BME280;62389;51.412;5.436;2022-10-31T12:31:12;101527.78;;;18.95;74.69
74045;BME280;62389;51.412;5.436;2022-10-31T12:36:38;101508.25;;;19.47;71.74
74045;BME280;62389;51.412;5.436;2022-10-31T12:39:30;101493.34;;;19.83;70.85
74045;BME280;62389;51.412;5.436;2022-10-31T12:42:14;101478.78;;;20.12;71.81
74045;BME280;62389;51.412;5.436;2022-10-31T12:45:14;101471.19;;;20.43;70.57
74045;BME280;62389;51.412;5.436;2022-10-31T12:47:56;101465.03;;;20.66;68.34
74045;BME280;62389;51.412;5.436;2022-10-31T12:53:07;101458.03;;;20.77;66.96
74045;BME280;62389;51.412;5.436;2022-10-31T12:55:48;101456.22;;;20.42;65.89
74045;BME280;62389;51.412;5.436;2022-10-31T12:58:29;101448.16;;;20.43;68.58
74045;BME280;62389;51.412;5.436;2022-10-31T13:01:16;101435.84;;;21.11;68.20
74045;BME280;62389;51.412;5.436;2022-10-31T13:06:22;101422.88;;;23.41;59.05
74045;BME280;62389;51.412;5.436;2022-10-31T13:08:55;101412.88;;;24.32;57.15
74045;BME280;62389;51.412;5.436;2022-10-31T13:11:41;101408.16;;;25.20;55.37
74045;BME280;62389;51.412;5.436;2022-10-31T13:14:23;101400.81;;;25.49;53.15
74045;BME280;62389;51.412;5.436;2022-10-31T13:16:50;101396.56;;;25.74;49.87
74045;BME280;62389;51.412;5.436;2022-10-31T13:19:19;101388.56;;;25.92;50.22
74045;BME280;62389;51.412;5.436;2022-10-31T13:21:58;101393.47;;;25.97;50.74
74045;BME280;62389;51.412;5.436;2022-10-31T13:30:20;101369.91;;;25.00;51.88
74045;BME280;62389;51.412;5.436;2022-10-31T13:32:59;101358.84;;;24.28;52.41
74045;BME280;62389;51.412;5.436;2022-10-31T13:35:42;101360.22;;;23.45;56.09
74045;BME280;62389;51.412;5.436;2022-10-31T13:38:24;101348.41;;;22.67;56.32
74045;BME280;62389;51.412;5.436;2022-10-31T13:41:13;101338.97;;;21.80;58.48
74045;BME280;62389;51.412;5.436;2022-10-31T13:44:11;101344.81;;;21.30;60.43
74045;BME280;62389;51.412;5.436;2022-10-31T13:46:39;101335.66;;;20.89;60.32
74045;BME280;62389;51.412;5.436;2022-10-31T13:51:49;101334.31;;;20.15;63.39
74045;BME280;62389;51.412;5.436;2022-10-31T13:54:32;101328.38;;;19.76;64.22
74045;BME280;62389;51.412;5.436;2022-10-31T13:56:58;101327.06;;;19.34;66.23
74045;BME280;62389;51.412;5.436;2022-10-31T13:59:25;101331.63;;;18.95;65.80
74045;BME280;62389;51.412;5.436;2022-10-31T14:01:55;101326.16;;;18.73;68.37
74045;BME280;62389;51.412;5.436;2022-10-31T14:07:20;101316.16;;;18.63;68.66
74045;BME280;62389;51.412;5.436;2022-10-31T14:10:03;101314.88;;;18.56;68.58
74045;BME280;62389;51.412;5.436;2022-10-31T14:12:39;101318.69;;;18.52;68.30
74045;BME280;62389;51.412;5.436;2022-10-31T14:15:38;101315.31;;;18.50;68.63
74045;BME280;62389;51.412;5.436;2022-10-31T14:18:06;101319.13;;;18.46;68.09
74045;BME280;62389;51.412;5.436;2022-10-31T14:20:43;101311.91;;;18.35;68.85
74045;BME280;62389;51.412;5.436;2022-10-31T14:25:37;101297.38;;;18.03;69.58
74045;BME280;62389;51.412;5.436;2022-10-31T14:28:19;101302.00;;;17.86;70.82